Time;durP1;ratioP1;P1;durP2;ratioP2;P2;SDS_P1;SDS_P2;PMS_P1;PMS_P2;Temp;Humidity;BMP_temperature;BMP_pressure;BME280_temperature;BME280_humidity;BME280_pressure;Samples;Min_cycle;Max_cycle;Signal;HPM_P1;HPM_P2
2023/10/05 00:04:39;;;;;;;7.28;1.33;;;14.20;99.90;;;;;;5053626;28;20572;-74
2023/10/05 00:07:19;;;;;;;9.48;1.77;;;14.20;99.90;;;;;;5051703;28;20036;-69
2023/10/05 00:09:46;;;;;;;6.43;1.33;;;14.20;99.90;;;;;;5053215;28;20404;-68
2023/10/05 00:12:18;;;;;;;7.03;1.17;;;14.30;99.90;;;;;;5058314;28;20048;-69
2023/10/05 00:14:55;;;;;;;6.45;1.55;;;14.40;99.90;;;;;;5053521;28;20123;-69
2023/10/05 00:17:21;;;;;;;8.13;1.50;;;14.40;99.90;;;;;;5058487;28;20260;-69
2023/10/05 00:19:47;;;;;;;4.32;1.33;;;14.40;99.90;;;;;;5077014;28;20072;-70
2023/10/05 00:22:13;;;;;;;10.93;1.95;;;14.40;99.90;;;;;;5053204;28;20062;-69
2023/10/05 00:24:40;;;;;;;8.43;1.63;;;14.40;99.90;;;;;;5057240;28;20041;-69
2023/10/05 00:27:09;;;;;;;10.00;1.77;;;14.50;99.90;;;;;;5049242;28;20538;-69
2023/10/05 00:29:41;;;;;;;8.23;1.40;;;14.50;99.90;;;;;;5056504;28;20422;-69
2023/10/05 00:32:13;;;;;;;9.77;1.48;;;14.60;99.90;;;;;;5053369;28;20049;-69
2023/10/05 00:34:42;;;;;;;6.10;1.30;;;14.60;99.90;;;;;;5055576;28;20549;-69
2023/10/05 00:37:09;;;;;;;9.57;1.45;;;14.60;99.90;;;;;;5051332;28;20051;-70
2023/10/05 00:39:36;;;;;;;;;;;14.60;99.90;;;;;;5060303;28;20032;-69
2023/10/05 00:44:32;;;;;;;5.65;1.38;;;14.60;99.90;;;;;;5053657;28;20733;-70
2023/10/05 00:47:04;;;;;;;6.65;1.45;;;14.60;99.90;;;;;;5054311;28;20116;-70
2023/10/05 00:49:41;;;;;;;11.75;1.52;;;14.60;99.90;;;;;;5055810;28;20041;-70
2023/10/05 00:52:16;;;;;;;3.83;0.93;;;14.60;99.90;;;;;;5050907;28;20041;-70
2023/10/05 00:54:54;;;;;;;10.80;1.80;;;14.70;99.90;;;;;;5051301;28;20489;-70
2023/10/05 00:57:23;;;;;;;5.78;1.88;;;14.70;99.90;;;;;;5052529;28;20098;-70
2023/10/05 01:02:45;;;;;;;5.65;1.50;;;14.70;99.90;;;;;;5052413;28;20032;-70
2023/10/05 01:05:25;;;;;;;9.70;1.77;;;14.70;99.90;;;;;;5052059;28;20048;-70
2023/10/05 01:07:56;;;;;;;10.60;1.98;;;14.70;99.90;;;;;;5029818;28;20040;-70
2023/10/05 01:12:53;;;;;;;7.70;1.80;;;14.70;99.90;;;;;;5053951;28;20128;-70
2023/10/05 01:15:30;;;;;;;12.73;2.03;;;14.70;99.90;;;;;;5052605;28;20053;-70
2023/10/05 01:17:56;;;;;;;5.57;1.40;;;14.80;99.90;;;;;;5050828;28;20057;-69
2023/10/05 01:20:22;;;;;;;5.75;1.80;;;14.80;99.90;;;;;;5053981;28;20032;-69
2023/10/05 01:22:57;;;;;;;4.75;1.33;;;14.80;99.90;;;;;;5055538;28;20041;-69
2023/10/05 01:25:25;;;;;;;6.65;1.80;;;14.80;99.90;;;;;;5053226;28;20150;-70
2023/10/05 01:27:54;;;;;;;9.10;1.67;;;14.80;99.90;;;;;;5048884;28;20036;-69
2023/10/05 01:30:21;;;;;;;7.20;1.98;;;14.80;99.90;;;;;;5056621;28;21131;-70
2023/10/05 01:32:47;;;;;;;7.65;2.30;;;14.80;99.90;;;;;;5048328;28;20089;-69
2023/10/05 01:35:17;;;;;;;7.28;1.35;;;14.80;99.90;;;;;;5054404;28;20052;-69
2023/10/05 01:37:44;;;;;;;8.73;2.42;;;14.80;99.90;;;;;;5056063;28;20047;-69
2023/10/05 01:42:46;;;;;;;7.25;1.52;;;14.80;99.90;;;;;;5050700;28;20407;-70
2023/10/05 01:45:22;;;;;;;13.88;1.90;;;14.80;99.90;;;;;;5050086;28;20076;-70
2023/10/05 01:47:49;;;;;;;5.70;1.67;;;14.80;99.90;;;;;;5062288;28;20573;-70
2023/10/05 01:50:26;;;;;;;7.75;1.52;;;14.80;99.90;;;;;;5055449;28;20040;-69
2023/10/05 01:53:01;;;;;;;5.28;1.55;;;14.80;99.90;;;;;;5040075;28;20041;-70
2023/10/05 01:55:32;;;;;;;8.48;1.45;;;14.80;99.90;;;;;;5040907;28;20127;-70
2023/10/05 01:57:58;;;;;;;9.98;1.63;;;14.80;99.90;;;;;;5056095;28;20052;-70
2023/10/05 02:00:25;;;;;;;7.30;1.38;;;14.90;99.90;;;;;;5054757;28;20044;-69
2023/10/05 02:02:55;;;;;;;8.27;2.33;;;14.80;99.90;;;;;;5056691;28;20048;-70
2023/10/05 02:05:22;;;;;;;7.78;1.73;;;14.80;99.90;;;;;;5060779;28;20113;-70
2023/10/05 02:07:49;;;;;;;5.72;1.63;;;14.90;99.90;;;;;;5053510;28;20466;-70
2023/10/05 02:10:21;;;;;;;7.28;1.60;;;14.90;99.90;;;;;;5062069;28;20123;-72
2023/10/05 02:13:00;;;;;;;7.82;1.52;;;14.80;99.90;;;;;;5034856;28;20044;-73
2023/10/05 02:15:29;;;;;;;11.10;1.63;;;14.90;99.90;;;;;;5059569;28;20048;-72
2023/10/05 02:18:07;;;;;;;10.20;1.15;;;14.80;99.90;;;;;;5053672;28;20041;-72
2023/10/05 02:22:58;;;;;;;9.20;1.52;;;14.90;99.90;;;;;;5054228;28;20039;-73
2023/10/05 02:25:33;;;;;;;9.20;1.40;;;14.80;99.90;;;;;;5057035;28;20033;-72
2023/10/05 02:28:00;;;;;;;8.88;1.70;;;14.80;99.90;;;;;;5048287;28;20104;-72
2023/10/05 02:30:32;;;;;;;5.65;1.50;;;14.90;99.90;;;;;;5052238;28;20040;-72
2023/10/05 02:32:59;;;;;;;7.63;1.98;;;14.80;99.90;;;;;;5057936;28;20554;-68
2023/10/05 02:35:33;;;;;;;8.88;2.00;;;14.90;99.90;;;;;;5052603;28;20041;-69
2023/10/05 02:38:06;;;;;;;5.72;1.17;;;14.90;99.90;;;;;;5042162;28;20554;-68
2023/10/05 02:40:38;;;;;;;10.77;1.60;;;14.90;99.90;;;;;;5055589;28;20051;-69
2023/10/05 02:43:07;;;;;;;9.35;1.83;;;14.90;99.90;;;;;;5051073;28;20036;-69
2023/10/05 02:45:36;;;;;;;7.50;1.98;;;14.90;99.90;;;;;;5056216;28;20041;-68
2023/10/05 02:48:06;;;;;;;7.20;1.73;;;14.80;99.90;;;;;;5056470;28;20043;-68
2023/10/05 02:50:37;;;;;;;9.13;1.88;;;14.80;99.90;;;;;;5055661;28;20072;-68
2023/10/05 02:53:06;;;;;;;5.68;1.90;;;14.80;99.90;;;;;;5048479;28;20803;-68
2023/10/05 02:55:36;;;;;;;6.60;1.55;;;14.80;99.90;;;;;;5056388;28;20546;-68
2023/10/05 02:58:05;;;;;;;6.78;1.38;;;14.80;99.90;;;;;;5059887;28;20088;-68
2023/10/05 03:00:34;;;;;;;10.13;1.48;;;14.80;99.90;;;;;;5052655;28;20044;-69
2023/10/05 03:03:03;;;;;;;6.43;1.92;;;14.80;99.90;;;;;;5055298;28;20041;-68
2023/10/05 03:05:32;;;;;;;7.47;1.60;;;14.80;99.90;;;;;;5060572;28;20448;-68
2023/10/05 03:07:58;;;;;;;9.50;1.70;;;14.80;99.90;;;;;;5051338;28;20048;-68
2023/10/05 03:10:24;;;;;;;11.00;1.80;;;14.80;99.90;;;;;;5059830;28;20036;-68
2023/10/05 03:12:50;;;;;;;14.38;2.58;;;14.80;99.90;;;;;;5058633;28;20063;-68
2023/10/05 03:15:18;;;;;;;7.85;1.50;;;14.80;99.90;;;;;;5054242;28;20521;-68
2023/10/05 03:17:46;;;;;;;7.10;1.80;;;14.80;99.90;;;;;;5051076;28;20052;-68
2023/10/05 03:20:22;;;;;;;13.18;2.20;;;14.80;99.90;;;;;;5057462;28;20309;-68
2023/10/05 03:22:47;;;;;;;7.22;1.80;;;14.80;99.90;;;;;;5057456;28;20044;-68
2023/10/05 03:25:16;;;;;;;9.25;2.25;;;14.80;99.90;;;;;;5048264;28;20102;-68
2023/10/05 03:27:45;;;;;;;8.77;2.10;;;14.80;99.90;;;;;;5054617;28;20041;-68
2023/10/05 03:30:14;;;;;;;7.60;1.77;;;14.80;99.90;;;;;;5051713;28;20411;-69
2023/10/05 03:32:41;;;;;;;9.18;1.60;;;14.80;99.90;;;;;;5010657;28;20349;-69
2023/10/05 03:35:11;;;;;;;13.98;2.03;;;14.80;99.90;;;;;;5042440;28;20065;-69
2023/10/05 03:37:41;;;;;;;11.18;2.20;;;14.80;99.90;;;;;;5053267;28;20040;-69
2023/10/05 03:40:19;;;;;;;6.70;1.65;;;14.80;99.90;;;;;;5054288;28;20524;-69
2023/10/05 03:42:46;;;;;;;6.95;1.80;;;14.70;99.90;;;;;;5048438;28;20136;-68
2023/10/05 03:45:16;;;;;;;9.02;1.73;;;14.70;99.90;;;;;;5054315;28;20063;-69
2023/10/05 03:47:43;;;;;;;11.48;2.55;;;14.70;99.90;;;;;;5056477;28;20079;-68
2023/10/05 03:50:22;;;;;;;6.15;1.50;;;14.70;99.90;;;;;;5059907;28;20041;-68
2023/10/05 03:52:48;;;;;;;8.52;1.45;;;14.70;99.90;;;;;;5058916;28;20080;-68
2023/10/05 03:55:18;;;;;;;5.57;1.73;;;14.70;99.90;;;;;;5057442;28;20122;-68
2023/10/05 03:57:44;;;;;;;10.25;2.30;;;14.70;99.90;;;;;;5052881;28;20059;-68
2023/10/05 04:02:46;;;;;;;8.25;1.77;;;14.70;99.90;;;;;;5055227;28;20110;-68
2023/10/05 04:05:12;;;;;;;7.63;1.92;;;14.80;99.90;;;;;;5037412;28;20432;-68
2023/10/05 04:07:38;;;;;;;13.00;1.65;;;14.80;99.90;;;;;;5054151;28;20119;-68
2023/10/05 04:10:05;;;;;;;;;;;14.80;99.90;;;;;;5056317;28;20048;-68
2023/10/05 04:12:32;;;;;;;8.93;2.00;;;14.80;99.90;;;;;;5049229;28;20010;-68
2023/10/05 04:15:00;;;;;;;12.38;2.22;;;14.80;99.90;;;;;;5051584;28;20209;-68
2023/10/05 04:17:28;;;;;;;8.10;1.67;;;14.80;99.90;;;;;;5053976;28;20036;-68
2023/10/05 04:19:54;;;;;;;9.00;1.73;;;14.80;99.90;;;;;;5050972;28;20295;-68
2023/10/05 04:22:20;;;;;;;13.05;2.15;;;14.80;99.90;;;;;;5053941;28;20429;-68
2023/10/05 04:24:45;;;;;;;10.10;1.92;;;14.80;99.90;;;;;;5051750;28;20052;-68
2023/10/05 04:27:12;;;;;;;8.52;1.90;;;14.80;99.90;;;;;;5050328;28;20523;-69
2023/10/05 04:29:38;;;;;;;9.93;1.70;;;14.80;99.90;;;;;;5040233;28;20198;-68
2023/10/05 04:32:06;;;;;;;10.82;2.10;;;14.90;99.90;;;;;;5027393;28;20037;-68
2023/10/05 04:34:35;;;;;;;7.75;2.65;;;14.80;99.90;;;;;;5059129;28;20101;-67
2023/10/05 04:37:01;;;;;;;15.95;2.40;;;14.90;99.90;;;;;;5053917;28;20045;-69
2023/10/05 04:39:30;;;;;;;9.63;1.88;;;14.90;99.90;;;;;;5053624;28;20037;-69
2023/10/05 04:42:11;;;;;;;12.25;2.28;;;14.90;99.90;;;;;;5048602;28;20052;-69
2023/10/05 04:44:37;;;;;;;11.73;2.17;;;14.90;99.90;;;;;;5056700;28;20048;-69
2023/10/05 04:47:04;;;;;;;9.55;2.58;;;14.90;99.90;;;;;;5044058;28;20705;-68
2023/10/05 04:49:31;;;;;;;12.02;1.65;;;14.90;99.90;;;;;;5051323;28;20571;-69
2023/10/05 04:51:57;;;;;;;;;;;14.90;99.90;;;;;;5049912;28;20393;-69
2023/10/05 04:54:26;;;;;;;6.53;1.80;;;14.90;99.90;;;;;;5055398;28;20011;-68
2023/10/05 04:57:06;;;;;;;6.30;1.92;;;14.90;99.90;;;;;;5053838;28;20044;-69
2023/10/05 05:02:12;;;;;;;11.85;2.10;;;14.90;99.90;;;;;;5052485;28;20041;-72
2023/10/05 05:04:52;;;;;;;9.00;1.40;;;14.90;99.90;;;;;;5056195;28;20077;-70
2023/10/05 05:07:21;;;;;;;8.27;1.67;;;14.90;99.90;;;;;;5048226;28;20121;-68
2023/10/05 05:09:47;;;;;;;9.60;2.33;;;14.90;99.90;;;;;;5055671;28;20036;-69
2023/10/05 05:12:17;;;;;;;11.80;1.52;;;14.90;99.90;;;;;;5054431;28;20053;-69
2023/10/05 05:14:45;;;;;;;9.43;2.03;;;14.90;99.90;;;;;;5052338;28;20033;-71
2023/10/05 05:17:26;;;;;;;10.88;2.47;;;14.80;99.90;;;;;;5059656;28;20032;-70
2023/10/05 05:19:52;;;;;;;15.30;2.00;;;14.90;99.90;;;;;;5059582;28;20052;-69
2023/10/05 05:22:20;;;;;;;10.10;2.00;;;14.90;99.90;;;;;;5062137;28;20091;-68
2023/10/05 05:24:47;;;;;;;7.90;1.95;;;14.90;99.90;;;;;;5048964;28;20135;-69
2023/10/05 05:29:45;;;;;;;15.93;2.08;;;14.90;99.90;;;;;;5055049;28;20554;-74
2023/10/05 05:32:13;;;;;;;13.93;1.92;;;14.90;99.90;;;;;;5057493;28;20550;-71
2023/10/05 05:34:43;;;;;;;11.55;2.20;;;14.90;99.90;;;;;;5056382;28;20064;-68
2023/10/05 05:37:25;;;;;;;9.95;1.45;;;14.90;99.90;;;;;;5056753;28;20520;-68
2023/10/05 05:40:12;;;;;;;6.35;1.85;;;14.90;99.90;;;;;;5060245;28;20047;-68
2023/10/05 05:42:41;;;;;;;13.05;2.30;;;14.90;99.90;;;;;;5058807;28;20109;-68
2023/10/05 05:45:18;;;;;;;10.93;2.03;;;15.00;99.90;;;;;;5054448;28;20063;-68
2023/10/05 05:47:49;;;;;;;8.77;2.10;;;14.90;99.90;;;;;;5065385;28;20036;-68
2023/10/05 05:50:18;;;;;;;8.57;1.85;;;15.00;99.90;;;;;;5060106;28;20045;-68
2023/10/05 05:52:47;;;;;;;10.43;1.75;;;14.90;99.90;;;;;;5058640;28;20840;-70
2023/10/05 05:55:22;;;;;;;9.23;1.58;;;15.00;99.90;;;;;;5057808;28;20052;-71
2023/10/05 05:57:51;;;;;;;11.27;2.08;;;15.00;99.90;;;;;;5060048;28;20044;-70
2023/10/05 06:00:18;;;;;;;8.00;2.03;;;15.00;99.90;;;;;;5056128;28;20086;-71
2023/10/05 06:02:47;;;;;;;10.75;2.67;;;15.00;99.90;;;;;;5056043;28;20142;-70
2023/10/05 06:05:15;;;;;;;9.43;2.13;;;15.00;99.90;;;;;;5052313;28;20474;-73
2023/10/05 06:07:50;;;;;;;14.73;2.67;;;15.00;99.90;;;;;;5059957;28;20052;-71
2023/10/05 06:10:16;;;;;;;11.73;2.47;;;15.00;99.90;;;;;;5055000;28;20110;-71
2023/10/05 06:12:44;;;;;;;6.63;1.60;;;15.00;99.90;;;;;;5039309;28;20044;-72
2023/10/05 06:15:10;;;;;;;7.35;2.30;;;15.00;99.90;;;;;;5056193;28;20053;-69
2023/10/05 06:17:40;;;;;;;8.00;1.92;;;15.00;99.90;;;;;;5052714;28;20030;-70
2023/10/05 06:20:07;;;;;;;10.18;1.85;;;15.00;99.90;;;;;;5051946;28;20033;-69
2023/10/05 06:22:40;;;;;;;10.05;2.42;;;15.00;99.90;;;;;;5060276;28;20029;-70
2023/10/05 06:25:09;;;;;;;14.90;2.08;;;15.00;99.90;;;;;;5056868;28;20040;-69
2023/10/05 06:27:37;;;;;;;10.85;2.50;;;15.10;99.90;;;;;;5042395;28;20145;-69
2023/10/05 06:30:09;;;;;;;7.60;1.25;;;15.10;99.90;;;;;;5055676;28;20040;-69
2023/10/05 06:32:35;;;;;;;7.47;1.83;;;15.10;99.90;;;;;;5057603;28;20070;-69
2023/10/05 06:35:03;;;;;;;7.05;1.90;;;15.10;99.90;;;;;;5059260;28;20048;-69
2023/10/05 06:37:33;;;;;;;11.45;1.83;;;15.10;99.90;;;;;;5052762;28;20044;-69
2023/10/05 06:40:09;;;;;;;12.85;2.35;;;15.10;99.90;;;;;;5057172;28;20500;-69
2023/10/05 06:42:35;;;;;;;10.00;2.20;;;15.20;99.90;;;;;;5060675;28;20416;-70
2023/10/05 06:45:00;;;;;;;12.40;2.20;;;15.20;99.90;;;;;;5053879;28;20051;-71
2023/10/05 06:47:38;;;;;;;6.07;1.95;;;15.20;99.90;;;;;;5059992;28;20037;-69
2023/10/05 06:50:08;;;;;;;7.82;1.85;;;15.20;99.90;;;;;;5060582;28;20459;-70
2023/10/05 06:52:46;;;;;;;12.70;2.50;;;15.20;99.90;;;;;;5056277;28;20607;-69
2023/10/05 06:55:13;;;;;;;14.63;2.28;;;15.30;99.90;;;;;;5059817;28;20066;-69
2023/10/05 06:57:43;;;;;;;10.57;2.20;;;15.30;99.90;;;;;;5049830;28;20040;-69
2023/10/05 07:00:20;;;;;;;9.57;1.70;;;15.30;99.90;;;;;;5037360;28;20033;-69
2023/10/05 07:02:58;;;;;;;9.20;2.10;;;15.30;99.90;;;;;;5058375;28;20040;-69
2023/10/05 07:05:27;;;;;;;13.38;2.10;;;15.30;99.90;;;;;;5058766;28;20478;-70
2023/10/05 07:07:53;;;;;;;9.88;3.05;;;15.30;99.90;;;;;;5055681;28;20047;-69
2023/10/05 07:10:19;;;;;;;13.20;2.38;;;15.40;99.90;;;;;;5062296;28;20048;-69
2023/10/05 07:12:46;;;;;;;13.70;2.45;;;15.40;99.90;;;;;;5049851;28;20521;-69
2023/10/05 07:15:17;;;;;;;10.68;1.90;;;15.40;99.90;;;;;;5052974;28;20127;-69
2023/10/05 07:17:44;;;;;;;8.35;1.88;;;15.40;99.90;;;;;;5057013;28;20124;-69
2023/10/05 07:20:11;;;;;;;9.85;2.47;;;15.40;99.90;;;;;;5054115;28;20044;-69
2023/10/05 07:22:41;;;;;;;12.80;2.53;;;15.40;99.90;;;;;;5036281;28;20029;-69
2023/10/05 07:25:19;;;;;;;12.18;1.65;;;15.40;99.90;;;;;;5057295;28;20063;-69
2023/10/05 07:27:47;;;;;;;9.63;2.15;;;15.40;99.90;;;;;;5050329;28;20033;-69
2023/10/05 07:30:14;;;;;;;13.57;2.50;;;15.40;99.90;;;;;;5052722;28;20052;-69
2023/10/05 07:32:40;;;;;;;9.45;2.20;;;15.40;99.90;;;;;;5049639;28;20043;-70
2023/10/05 07:35:07;;;;;;;10.65;2.40;;;15.40;99.90;;;;;;5060652;28;20037;-69
2023/10/05 07:37:34;;;;;;;8.13;2.28;;;15.40;99.90;;;;;;5052547;28;20102;-69
2023/10/05 07:40:00;;;;;;;10.95;2.22;;;15.40;99.90;;;;;;5054944;28;20388;-69
2023/10/05 07:42:30;;;;;;;9.68;2.55;;;15.40;99.90;;;;;;5061979;28;20111;-69
2023/10/05 07:44:57;;;;;;;9.98;2.10;;;15.40;99.90;;;;;;5051483;28;20075;-69
2023/10/05 07:47:24;;;;;;;9.45;2.03;;;15.40;99.90;;;;;;5053722;28;20378;-69
2023/10/05 07:49:53;;;;;;;11.80;2.97;;;15.40;99.90;;;;;;5055887;28;20041;-69
2023/10/05 07:52:19;;;;;;;8.48;1.80;;;15.40;99.90;;;;;;5055044;28;20111;-69
2023/10/05 07:54:45;;;;;;;9.27;2.45;;;15.40;99.90;;;;;;5056283;28;20040;-67
2023/10/05 07:57:11;;;;;;;11.38;2.30;;;15.40;99.90;;;;;;5056028;28;20044;-67
2023/10/05 07:59:40;;;;;;;;;;;15.40;99.90;;;;;;5053238;28;20098;-67
2023/10/05 08:02:06;;;;;;;9.40;2.60;;;15.40;99.90;;;;;;5048835;28;20014;-67
2023/10/05 08:04:32;;;;;;;10.70;2.55;;;15.40;99.90;;;;;;5048694;28;20035;-70
2023/10/05 08:06:59;;;;;;;12.32;2.45;;;15.40;99.90;;;;;;5048632;28;20124;-69
2023/10/05 08:09:27;;;;;;;9.88;2.50;;;15.40;99.90;;;;;;5054691;28;20047;-70
2023/10/05 08:11:55;;;;;;;8.90;2.40;;;15.30;99.90;;;;;;5058603;28;20088;-70
2023/10/05 08:14:21;;;;;;;8.40;2.63;;;15.30;99.90;;;;;;5049966;28;20051;-69
2023/10/05 08:16:50;;;;;;;11.57;2.45;;;15.30;99.90;;;;;;5054783;28;20505;-69
2023/10/05 08:19:16;;;;;;;7.68;2.20;;;15.30;99.90;;;;;;5057351;28;20496;-70
2023/10/05 08:21:42;;;;;;;11.27;2.05;;;15.30;99.90;;;;;;5059185;28;20094;-69
2023/10/05 08:24:08;;;;;;;12.70;2.95;;;15.30;99.90;;;;;;5050434;28;20037;-69
2023/10/05 08:26:34;;;;;;;;;;;15.40;99.90;;;;;;5060047;28;20132;-69
2023/10/05 08:29:01;;;;;;;8.90;2.00;;;15.40;99.90;;;;;;5058318;28;19928;-70
2023/10/05 08:31:27;;;;;;;11.43;2.53;;;15.50;99.90;;;;;;5058523;28;20043;-69
2023/10/05 08:33:53;;;;;;;9.52;2.05;;;15.50;99.90;;;;;;5035574;28;20095;-69
2023/10/05 08:36:20;;;;;;;9.07;3.00;;;15.50;99.90;;;;;;5060383;28;20048;-70
2023/10/05 08:38:48;;;;;;;7.43;2.10;;;15.60;99.90;;;;;;5051409;28;20504;-70
2023/10/05 08:41:34;;;;;;;10.90;2.25;;;15.60;99.90;;;;;;5059370;28;20412;-70
2023/10/05 08:44:06;;;;;;;10.73;2.58;;;15.60;99.90;;;;;;5053131;28;20091;-70
2023/10/05 08:46:43;;;;;;;8.70;2.13;;;15.60;99.90;;;;;;5056097;28;20039;-70
2023/10/05 08:49:15;;;;;;;12.95;3.05;;;15.60;99.90;;;;;;5050541;28;20037;-70
2023/10/05 08:51:41;;;;;;;6.78;2.20;;;15.70;99.90;;;;;;5049732;28;20291;-70
2023/10/05 08:54:11;;;;;;;9.52;2.30;;;15.60;99.90;;;;;;5055015;28;20258;-70
2023/10/05 08:56:45;;;;;;;11.32;2.20;;;15.60;99.90;;;;;;5050492;28;20396;-70
2023/10/05 08:59:19;;;;;;;8.40;1.83;;;15.60;99.90;;;;;;5056997;28;20077;-70
2023/10/05 09:01:46;;;;;;;9.77;2.65;;;15.60;99.90;;;;;;5054629;28;20492;-70
2023/10/05 09:07:08;;;;;;;11.40;2.38;;;15.60;99.90;;;;;;5051016;28;20099;-70
2023/10/05 09:09:39;;;;;;;13.40;2.63;;;15.60;99.90;;;;;;5047411;28;20041;-70
2023/10/05 09:17:58;;;;;;;4.00;1.70;;;15.50;99.90;;;;;;5056672;28;20037;-68
2023/10/05 09:20:32;;;;;;;8.65;2.10;;;15.50;99.90;;;;;;5060765;28;20097;-69
2023/10/05 09:23:03;;;;;;;5.38;1.75;;;15.50;99.90;;;;;;5042711;28;20072;-69
2023/10/05 09:25:36;;;;;;;6.28;1.80;;;15.50;99.90;;;;;;5045586;28;20367;-69
2023/10/05 09:28:13;;;;;;;6.65;2.17;;;15.50;99.90;;;;;;5048818;28;20548;-70
2023/10/05 09:30:55;;;;;;;11.35;2.38;;;15.50;99.90;;;;;;5054001;28;20453;-70
2023/10/05 09:33:27;;;;;;;7.43;2.20;;;15.50;99.90;;;;;;5055798;28;20064;-72
2023/10/05 09:36:06;;;;;;;14.35;2.60;;;15.50;99.90;;;;;;5055322;28;20116;-70
2023/10/05 09:38:40;;;;;;;9.38;2.28;;;15.50;99.90;;;;;;5053273;28;20154;-70
2023/10/05 09:41:08;;;;;;;10.10;2.10;;;15.50;99.90;;;;;;5051605;28;20033;-70
2023/10/05 09:43:38;;;;;;;13.88;2.45;;;15.50;99.90;;;;;;5058526;28;20033;-71
2023/10/05 09:46:09;;;;;;;15.65;2.75;;;15.50;99.90;;;;;;5058107;28;20101;-74
2023/10/05 09:48:39;;;;;;;10.30;3.00;;;15.60;99.90;;;;;;5055552;28;20044;-74
2023/10/05 09:51:10;;;;;;;13.32;2.65;;;15.60;99.90;;;;;;5051017;28;20107;-70
2023/10/05 09:53:43;;;;;;;8.27;2.72;;;15.70;99.90;;;;;;5058174;28;20174;-70
2023/10/05 09:56:12;;;;;;;11.43;2.25;;;15.70;99.90;;;;;;5051770;28;20087;-71
2023/10/05 09:58:45;;;;;;;8.68;2.17;;;15.70;99.90;;;;;;5052287;28;20055;-73
2023/10/05 10:01:17;;;;;;;11.30;2.47;;;15.80;99.90;;;;;;5057144;28;20123;-75
2023/10/05 10:03:46;;;;;;;9.30;3.03;;;15.80;99.90;;;;;;5051123;28;20073;-74
2023/10/05 10:06:18;;;;;;;10.20;2.42;;;15.80;99.90;;;;;;5054666;28;20098;-74
2023/10/05 10:08:53;;;;;;;17.23;2.60;;;15.90;99.90;;;;;;5054430;28;20141;-73
2023/10/05 10:11:24;;;;;;;17.38;2.20;;;15.90;99.90;;;;;;5056085;28;20505;-73
2023/10/05 10:14:06;;;;;;;10.43;2.58;;;15.90;99.90;;;;;;5054315;28;20040;-73
2023/10/05 10:16:34;;;;;;;10.35;2.15;;;15.90;99.90;;;;;;5057516;28;20045;-72
2023/10/05 10:19:06;;;;;;;8.73;2.47;;;15.90;99.90;;;;;;5058241;28;20041;-71
2023/10/05 10:21:34;;;;;;;6.13;1.50;;;16.00;99.90;;;;;;5060602;28;20390;-73
2023/10/05 10:24:06;;;;;;;8.68;2.30;;;16.00;99.90;;;;;;5058374;28;20111;-74
2023/10/05 10:27:11;;;;;;;5.47;1.85;;;16.00;99.90;;;;;;5058380;28;20477;-73
2023/10/05 10:29:56;;;;;;;9.52;2.83;;;16.10;99.90;;;;;;5052485;28;20053;-74
2023/10/05 10:32:32;;;;;;;11.35;2.45;;;16.10;99.90;;;;;;5050972;28;20048;-73
2023/10/05 10:35:13;;;;;;;9.65;2.15;;;16.20;99.90;;;;;;5057832;28;20582;-73
2023/10/05 10:37:48;;;;;;;5.72;1.77;;;16.20;99.90;;;;;;5041236;28;20187;-74
2023/10/05 10:42:53;;;;;;;8.07;2.00;;;16.40;99.90;;;;;;5055140;28;20059;-75
2023/10/05 10:45:29;;;;;;;5.40;1.70;;;16.50;99.90;;;;;;5035485;28;20044;-75
2023/10/05 10:47:58;;;;;;;8.15;1.90;;;16.50;99.90;;;;;;5056808;28;20090;-73
2023/10/05 10:50:30;;;;;;;12.27;2.00;;;16.50;99.90;;;;;;5062584;28;20033;-74
2023/10/05 10:52:58;;;;;;;6.10;1.77;;;16.50;99.90;;;;;;5052708;28;20132;-74
2023/10/05 10:55:32;;;;;;;8.30;1.95;;;16.50;99.90;;;;;;5058661;28;20127;-74
2023/10/05 10:58:00;;;;;;;15.10;2.17;;;16.50;99.90;;;;;;5048681;28;20045;-74
2023/10/05 11:03:11;;;;;;;6.43;2.10;;;16.70;99.90;;;;;;5048980;28;20527;-74
2023/10/05 11:05:39;;;;;;;9.57;2.00;;;16.80;99.90;;;;;;5052947;28;20087;-74
2023/10/05 11:08:11;;;;;;;10.43;1.85;;;16.80;99.90;;;;;;5062292;28;20092;-75
2023/10/05 11:10:37;;;;;;;9.63;2.08;;;17.00;99.90;;;;;;5055858;28;20043;-74
2023/10/05 11:13:19;;;;;;;10.40;2.95;;;17.10;99.90;;;;;;5054381;28;20044;-75
2023/10/05 11:15:58;;;;;;;13.30;2.40;;;17.40;99.90;;;;;;5050593;28;20057;-74
2023/10/05 11:18:26;;;;;;;7.50;2.00;;;17.50;99.90;;;;;;5052360;28;20102;-73
2023/10/05 11:20:53;;;;;;;9.23;2.78;;;17.50;99.90;;;;;;5056901;28;20459;-73
2023/10/05 11:23:29;;;;;;;8.75;2.25;;;17.60;99.90;;;;;;5063688;28;20063;-74
2023/10/05 11:26:17;;;;;;;8.07;2.28;;;17.50;99.90;;;;;;5052984;28;20040;-73
2023/10/05 11:28:49;;;;;;;10.38;2.65;;;17.50;99.90;;;;;;5058162;28;20499;-73
2023/10/05 11:31:21;;;;;;;6.65;1.95;;;17.50;99.90;;;;;;5056754;28;20040;-74
2023/10/05 11:33:49;;;;;;;10.50;2.10;;;17.40;99.90;;;;;;5053898;28;20413;-74
2023/10/05 11:36:17;;;;;;;8.10;2.13;;;17.40;99.90;;;;;;5054692;28;20524;-74
2023/10/05 11:38:43;;;;;;;8.63;2.00;;;17.40;99.90;;;;;;5055786;28;20040;-74
2023/10/05 11:41:16;;;;;;;8.18;1.80;;;17.40;99.90;;;;;;5048471;28;20060;-74
2023/10/05 11:43:51;;;;;;;6.05;1.98;;;17.40;99.90;;;;;;5057780;28;20089;-75
2023/10/05 11:46:29;;;;;;;9.90;2.00;;;17.40;99.90;;;;;;5049307;28;20041;-74
2023/10/05 11:48:55;;;;;;;5.72;1.77;;;17.30;99.90;;;;;;5051159;28;20094;-75
2023/10/05 11:51:41;;;;;;;9.27;2.17;;;17.30;99.90;;;;;;5054195;28;20052;-74
2023/10/05 11:54:19;;;;;;;7.07;2.00;;;17.20;99.90;;;;;;5057835;28;20163;-74
2023/10/05 11:56:46;;;;;;;9.82;1.95;;;17.20;99.90;;;;;;5059199;28;20045;-75
2023/10/05 11:59:13;;;;;;;13.25;3.05;;;17.20;99.90;;;;;;5055475;28;20056;-75
2023/10/05 12:01:40;;;;;;;;;;;17.10;99.90;;;;;;5054660;28;20041;-74
2023/10/05 12:04:09;;;;;;;8.50;1.92;;;17.10;99.90;;;;;;5054355;28;19927;-74
2023/10/05 12:06:37;;;;;;;9.38;1.90;;;17.10;99.90;;;;;;5062384;28;20049;-74
2023/10/05 12:09:07;;;;;;;16.23;2.75;;;17.20;99.90;;;;;;5050506;28;20040;-74
2023/10/05 12:11:38;;;;;;;12.55;1.98;;;17.20;99.90;;;;;;5049589;28;20522;-74
2023/10/05 12:14:04;;;;;;;6.25;1.75;;;17.20;99.90;;;;;;5051133;28;20208;-74
2023/10/05 12:16:34;;;;;;;10.43;2.10;;;17.20;99.90;;;;;;5063331;28;20100;-75
2023/10/05 12:19:16;;;;;;;6.47;2.10;;;17.20;99.90;;;;;;5050096;28;20556;-75
2023/10/05 12:21:45;;;;;;;5.93;1.90;;;17.20;99.90;;;;;;5041628;28;20052;-73
2023/10/05 12:24:11;;;;;;;9.48;1.38;;;17.20;99.90;;;;;;5057391;28;20043;-73
2023/10/05 12:26:44;;;;;;;3.13;1.45;;;17.30;99.90;;;;;;5056435;28;20453;-73
2023/10/05 12:29:12;;;;;;;11.00;1.70;;;17.30;99.90;;;;;;5048168;28;20044;-73
2023/10/05 12:31:50;;;;;;;7.28;1.55;;;17.30;99.90;;;;;;5055868;28;20073;-74
2023/10/05 12:34:18;;;;;;;4.60;1.45;;;17.30;99.90;;;;;;5052908;28;20040;-74
2023/10/05 12:36:51;;;;;;;6.00;2.03;;;17.30;99.90;;;;;;5053281;28;20040;-73
2023/10/05 12:39:21;;;;;;;6.05;1.65;;;17.30;99.90;;;;;;5050534;28;20040;-73
2023/10/05 12:41:50;;;;;;;10.23;1.73;;;17.30;99.90;;;;;;5051298;28;20052;-73
2023/10/05 12:44:16;;;;;;;7.28;1.83;;;17.30;99.90;;;;;;5049785;28;20094;-73
2023/10/05 12:46:45;;;;;;;8.45;1.92;;;17.30;99.90;;;;;;5046904;28;20028;-74
2023/10/05 12:49:14;;;;;;;5.25;1.35;;;17.30;99.90;;;;;;5056987;28;20068;-74
2023/10/05 12:51:41;;;;;;;5.53;1.83;;;17.20;99.90;;;;;;5058502;28;20043;-73
2023/10/05 12:54:09;;;;;;;7.72;2.28;;;17.20;99.90;;;;;;5055626;28;20214;-72
2023/10/05 12:56:41;;;;;;;5.05;1.88;;;17.20;99.90;;;;;;5056368;28;20116;-73
2023/10/05 12:59:07;;;;;;;10.05;1.90;;;17.20;99.90;;;;;;5050816;28;20124;-73
2023/10/05 13:01:42;;;;;;;5.20;1.77;;;17.20;99.90;;;;;;5059913;28;20041;-73
2023/10/05 13:04:09;;;;;;;9.75;2.00;;;17.20;99.90;;;;;;5060557;28;20408;-73
2023/10/05 13:06:38;;;;;;;7.75;2.05;;;17.30;99.90;;;;;;5055578;28;20112;-73
2023/10/05 13:09:11;;;;;;;10.10;1.60;;;17.40;99.90;;;;;;5054883;28;20045;-73
2023/10/05 13:11:40;;;;;;;6.97;1.70;;;17.40;99.90;;;;;;5049207;28;20112;-73
2023/10/05 13:14:08;;;;;;;10.35;1.88;;;17.50;99.90;;;;;;5051495;28;20033;-73
2023/10/05 13:16:40;;;;;;;13.57;2.30;;;17.60;99.90;;;;;;5058124;28;20049;-73
2023/10/05 13:19:09;;;;;;;7.25;2.53;;;17.70;99.90;;;;;;5055694;28;20045;-73
2023/10/05 13:21:44;;;;;;;7.28;1.95;;;17.70;99.90;;;;;;5055073;28;20048;-73
2023/10/05 13:24:15;;;;;;;3.90;1.75;;;17.60;99.90;;;;;;5057025;28;20044;-74
2023/10/05 13:26:45;;;;;;;4.00;1.63;;;17.60;99.90;;;;;;5052410;28;20063;-74
2023/10/05 13:29:17;;;;;;;10.15;1.52;;;17.60;99.90;;;;;;5051223;28;20032;-73
2023/10/05 13:31:46;;;;;;;4.53;1.42;;;17.60;99.90;;;;;;5056204;28;20093;-74
2023/10/05 13:34:16;;;;;;;5.13;1.27;;;17.60;99.90;;;;;;5054787;28;20041;-74
2023/10/05 13:36:43;;;;;;;8.80;2.00;;;17.50;99.90;;;;;;5056263;28;20048;-73
2023/10/05 13:39:14;;;;;;;5.07;1.70;;;17.60;99.90;;;;;;5051069;28;20106;-69